Time;durP1;ratioP1;P1;durP2;ratioP2;P2;SDS_P1;SDS_P2;PMS_P1;PMS_P2;Temp;Humidity;BMP_temperature;BMP_pressure;BME280_temperature;BME280_humidity;BME280_pressure;Samples;Min_cycle;Max_cycle;Signal;HPM_P1;HPM_P2
2022/04/03 00:00:24;;;;;;;8.07;3.50;;;;;;;5.28;55.16;100879.25;5111109;28;20707;-65
2022/04/03 00:02:52;;;;;;;8.37;3.33;;;;;;;5.27;55.58;100881.09;5112042;28;20298;-65
2022/04/03 00:05:20;;;;;;;5.13;2.97;;;;;;;5.26;54.83;100881.19;5110652;28;20435;-64
2022/04/03 00:07:48;;;;;;;5.83;2.87;;;;;;;5.20;55.35;100885.03;5098323;28;20205;-65
2022/04/03 00:10:17;;;;;;;6.63;3.20;;;;;;;5.28;55.56;100887.16;5111124;28;20545;-65
2022/04/03 00:12:46;;;;;;;6.83;3.70;;;;;;;5.28;55.50;100881.91;5111062;28;20205;-65
2022/04/03 00:15:14;;;;;;;6.13;3.23;;;;;;;5.20;55.63;100881.56;5111665;28;20691;-66
2022/04/03 00:17:45;;;;;;;7.57;3.80;;;;;;;5.17;55.93;100879.16;5111570;28;20210;-65
2022/04/03 00:20:13;;;;;;;5.83;3.17;;;;;;;5.18;55.67;100886.13;5110644;28;20186;-65
2022/04/03 00:22:43;;;;;;;7.00;3.30;;;;;;;5.19;55.98;100882.56;5111137;28;20245;-65
2022/04/03 00:25:12;;;;;;;6.03;3.40;;;;;;;5.17;55.88;100879.16;5111517;28;20224;-65
2022/04/03 00:27:44;;;;;;;7.00;3.30;;;;;;;5.16;55.83;100886.22;5111868;27;20208;-65
2022/04/03 00:30:13;;;;;;;7.23;3.50;;;;;;;5.13;56.14;100888.19;5109188;28;20258;-65
2022/04/03 00:32:41;;;;;;;5.10;3.00;;;;;;;5.13;56.21;100889.03;5111687;28;20552;-65
2022/04/03 00:35:09;;;;;;;9.50;3.20;;;;;;;5.11;56.06;100884.81;5111645;28;20299;-65
2022/04/03 00:37:37;;;;;;;6.63;3.47;;;;;;;5.07;56.24;100893.88;5110806;28;20336;-65
2022/04/03 00:40:06;;;;;;;9.13;3.63;;;;;;;5.06;56.04;100892.19;5110472;28;20262;-65
2022/04/03 00:42:38;;;;;;;5.10;3.20;;;;;;;5.08;56.11;100895.56;5111204;28;20215;-65
2022/04/03 00:45:13;;;;;;;5.70;3.47;;;;;;;5.01;56.28;100892.50;5111380;28;20632;-65
2022/04/03 00:47:41;;;;;;;6.10;3.90;;;;;;;5.06;56.29;100905.34;5110912;28;20205;-65
2022/04/03 00:50:11;;;;;;;7.00;3.67;;;;;;;4.97;56.21;100898.06;5110034;28;20212;-65
2022/04/03 00:52:38;;;;;;;8.77;4.43;;;;;;;4.98;56.58;100899.75;5111831;28;20211;-65
2022/04/03 00:55:07;;;;;;;6.10;3.67;;;;;;;5.00;56.47;100905.75;5110577;28;20236;-65
2022/04/03 00:57:35;;;;;;;5.93;3.03;;;;;;;4.96;56.62;100906.88;5111135;28;20209;-64
2022/04/03 01:00:05;;;;;;;7.70;3.60;;;;;;;4.96;56.55;100896.38;5110339;28;20216;-64
2022/04/03 01:02:34;;;;;;;8.07;3.57;;;;;;;4.98;56.95;100902.38;5106855;28;20752;-64
2022/04/03 01:05:02;;;;;;;8.83;3.90;;;;;;;4.94;57.10;100904.34;5111076;27;20225;-65
2022/04/03 01:07:30;;;;;;;7.17;3.67;;;;;;;4.93;57.28;100900.03;5091801;28;20494;-65
2022/04/03 01:09:59;;;;;;;7.23;3.60;;;;;;;4.85;57.73;100911.06;5117974;27;20208;-64
2022/04/03 01:12:27;;;;;;;6.37;3.70;;;;;;;4.89;57.34;100911.72;5131430;27;20254;-64
2022/04/03 01:15:16;;;;;;;9.20;3.47;;;;;;;4.89;57.64;100909.09;5130912;27;20193;-65
2022/04/03 01:17:45;;;;;;;7.13;3.70;;;;;;;4.91;57.47;100912.47;5119474;27;20201;-65
2022/04/03 01:20:13;;;;;;;7.33;3.87;;;;;;;4.93;57.59;100908.75;5109854;28;20638;-66
2022/04/03 01:22:41;;;;;;;7.17;4.10;;;;;;;4.93;57.76;100915.81;5110061;28;20329;-65
2022/04/03 01:25:10;;;;;;;8.70;3.70;;;;;;;4.97;57.58;100908.56;5109792;28;20243;-63
2022/04/03 01:27:39;;;;;;;6.83;4.03;;;;;;;4.98;57.56;100913.72;5109631;28;20717;-65
2022/04/03 01:30:10;;;;;;;6.47;3.70;;;;;;;4.95;57.78;100913.06;5109836;28;20206;-65
2022/04/03 01:32:40;;;;;;;7.33;4.00;;;;;;;4.93;57.84;100914.03;5110052;28;20213;-64
2022/04/03 01:35:08;;;;;;;5.77;3.60;;;;;;;4.95;57.74;100915.72;5110366;28;20251;-64
2022/04/03 01:37:36;;;;;;;7.50;3.53;;;;;;;4.95;58.04;100915.72;5109826;27;20589;-64
2022/04/03 01:40:05;;;;;;;8.47;4.30;;;;;;;4.93;57.08;100919.28;5096820;28;20220;-65
2022/04/03 01:42:34;;;;;;;8.83;4.37;;;;;;;4.93;57.54;100914.03;5089199;28;20214;-65
2022/04/03 01:45:02;;;;;;;8.20;4.00;;;;;;;4.97;57.32;100913.81;5089402;28;20324;-65
2022/04/03 01:47:30;;;;;;;12.37;4.70;;;;;;;4.97;57.48;100909.41;5098886;28;20215;-65
2022/04/03 01:49:58;;;;;;;8.30;4.40;;;;;;;5.00;57.27;100913.63;5109285;28;20308;-65
2022/04/03 01:52:26;;;;;;;5.80;3.57;;;;;;;4.95;57.17;100910.44;5109748;28;20219;-65
2022/04/03 01:54:56;;;;;;;10.47;4.60;;;;;;;4.96;57.33;100906.88;5109850;28;20217;-66
2022/04/03 01:57:24;;;;;;;6.60;3.70;;;;;;;5.02;57.00;100914.34;5110323;28;20250;-65
2022/04/03 01:59:53;;;;;;;7.03;4.03;;;;;;;5.00;56.90;100913.63;5092259;28;20211;-65
2022/04/03 02:02:20;;;;;;;7.90;3.97;;;;;;;5.00;56.96;100908.38;5099074;27;20204;-65
2022/04/03 02:04:49;;;;;;;8.37;3.90;;;;;;;5.00;56.75;100914.47;5125494;27;20234;-65
2022/04/03 02:07:16;;;;;;;5.80;3.67;;;;;;;4.95;56.75;100915.72;5129370;27;20267;-65
2022/04/03 02:09:44;;;;;;;10.03;4.70;;;;;;;4.92;57.11;100917.59;5111521;27;20203;-65
2022/04/03 02:12:12;;;;;;;7.23;3.87;;;;;;;4.93;56.88;100918.44;5109284;28;20233;-66
2022/04/03 02:14:40;;;;;;;6.97;4.20;;;;;;;4.95;56.87;100918.34;5109848;28;20304;-65
2022/04/03 02:17:09;;;;;;;7.37;3.70;;;;;;;4.97;56.56;100929.59;5109644;28;20818;-65
2022/04/03 02:19:37;;;;;;;6.37;4.07;;;;;;;4.98;56.95;100926.03;5108626;28;20212;-65
2022/04/03 02:22:05;;;;;;;10.13;4.20;;;;;;;4.95;57.03;100923.59;5109656;28;20676;-65
2022/04/03 02:24:33;;;;;;;8.53;4.03;;;;;;;4.99;57.01;100925.94;5112843;28;20212;-66
2022/04/03 02:27:01;;;;;;;7.47;3.83;;;;;;;4.96;57.36;100922.66;5110043;28;20266;-65
2022/04/03 02:29:29;;;;;;;7.60;3.67;;;;;;;4.96;57.76;100920.03;5109854;28;20209;-64
2022/04/03 02:31:58;;;;;;;6.70;4.00;;;;;;;4.95;57.55;100926.22;5110679;28;20212;-64
2022/04/03 02:34:27;;;;;;;7.50;4.47;;;;;;;4.95;57.53;100916.56;5110100;28;20209;-65
2022/04/03 02:36:55;;;;;;;7.57;3.73;;;;;;;4.92;57.47;100922.03;5118526;28;20256;-64
2022/04/03 02:39:23;;;;;;;10.00;4.30;;;;;;;4.88;57.75;100924.00;5108657;28;20236;-66
2022/04/03 02:41:51;;;;;;;8.27;4.07;;;;;;;4.84;57.96;100919.88;5109417;28;20647;-64
2022/04/03 02:44:19;;;;;;;6.77;4.03;;;;;;;4.85;57.83;100932.06;5109362;28;20223;-66
2022/04/03 02:46:46;;;;;;;9.47;4.33;;;;;;;4.83;57.82;100928.72;5109621;28;20300;-65
2022/04/03 02:49:14;;;;;;;8.00;4.07;;;;;;;4.80;57.90;100926.28;5108964;28;20243;-64
2022/04/03 02:51:43;;;;;;;8.20;4.73;;;;;;;4.76;57.70;100927.41;5109506;28;20211;-65
2022/04/03 02:54:11;;;;;;;6.23;4.03;;;;;;;4.76;57.53;100927.41;5108193;28;20216;-64
2022/04/03 02:56:38;;;;;;;10.70;4.50;;;;;;;4.76;57.73;100930.06;5101116;28;20200;-64
2022/04/03 02:59:09;;;;;;;9.93;4.60;;;;;;;4.77;57.72;100929.09;5108403;28;20201;-66
2022/04/03 03:01:36;;;;;;;7.07;3.90;;;;;;;4.76;57.74;100932.69;5109143;28;20255;-66
2022/04/03 03:04:06;;;;;;;6.80;3.90;;;;;;;4.73;57.51;100935.53;5110941;28;20209;-66
2022/04/03 03:06:34;;;;;;;7.17;4.07;;;;;;;4.70;57.44;100938.34;5093910;28;20314;-66
2022/04/03 03:09:03;;;;;;;8.27;4.37;;;;;;;4.68;57.53;100937.59;5108477;28;20215;-65
2022/04/03 03:11:31;;;;;;;7.93;4.30;;;;;;;4.66;57.44;100936.84;5108934;28;20213;-63
2022/04/03 03:13:58;;;;;;;7.33;3.80;;;;;;;4.68;57.53;100931.50;5108895;28;20327;-65
2022/04/03 03:16:26;;;;;;;8.83;4.83;;;;;;;4.68;57.59;100929.72;5108595;28;20287;-64
2022/04/03 03:18:54;;;;;;;8.83;4.67;;;;;;;4.69;57.50;100933.19;5111692;28;20215;-65
2022/04/03 03:21:21;;;;;;;8.87;4.57;;;;;;;4.68;57.93;100940.22;5113811;28;20782;-65
2022/04/03 03:23:49;;;;;;;11.50;4.60;;;;;;;4.66;57.85;100934.22;5113028;28;20294;-65
2022/04/03 03:26:20;;;;;;;9.77;4.33;;;;;;;4.65;57.66;100940.44;5112436;28;20229;-65
2022/04/03 03:28:48;;;;;;;6.73;4.23;;;;;;;4.66;57.87;100939.47;5112502;28;20215;-65
2022/04/03 03:31:16;;;;;;;8.17;4.03;;;;;;;4.61;57.77;100943.34;5112010;28;20219;-66
2022/04/03 03:33:43;;;;;;;10.70;3.97;;;;;;;4.61;57.73;100940.72;5117409;27;20200;-65
2022/04/03 03:36:11;;;;;;;8.87;4.47;;;;;;;4.60;57.90;100947.75;5112162;28;20225;-65
2022/04/03 03:38:40;;;;;;;10.70;5.17;;;;;;;4.57;58.03;100947.97;5111856;28;20335;-65
2022/04/03 03:41:07;;;;;;;9.50;4.80;;;;;;;4.56;57.89;100943.66;5112360;28;20223;-64
2022/04/03 03:43:37;;;;;;;7.27;4.50;;;;;;;4.48;58.14;100948.56;5112248;28;20216;-65
2022/04/03 03:46:04;;;;;;;8.73;5.03;;;;;;;4.57;57.74;100942.72;5111845;28;20212;-65
2022/04/03 03:48:38;;;;;;;8.63;4.10;;;;;;;4.56;57.75;100951.53;5110784;28;20208;-65
2022/04/03 03:51:06;;;;;;;7.77;4.07;;;;;;;4.54;57.76;100950.78;5104975;28;20210;-66
2022/04/03 03:53:36;;;;;;;8.63;4.80;;;;;;;4.54;57.73;100953.41;5111588;28;20321;-64
2022/04/03 03:56:05;;;;;;;9.67;4.43;;;;;;;4.47;57.82;100952.13;5112240;28;20296;-65
2022/04/03 03:58:33;;;;;;;9.07;5.00;;;;;;;4.53;57.81;100952.56;5111440;28;20230;-64
2022/04/03 04:01:02;;;;;;;8.27;4.57;;;;;;;4.51;57.75;100953.59;5124090;27;20204;-65
2022/04/03 04:03:30;;;;;;;9.40;5.00;;;;;;;4.51;57.55;100953.59;5132924;27;20240;-64
2022/04/03 04:05:58;;;;;;;8.87;4.70;;;;;;;4.49;57.70;100963.34;5117642;27;20208;-66
2022/04/03 04:08:33;;;;;;;11.03;5.20;;;;;;;4.47;57.99;100960.00;5098158;28;20424;-64
2022/04/03 04:11:01;;;;;;;13.70;5.10;;;;;;;4.45;57.83;100961.88;5111712;28;20208;-65
2022/04/03 04:13:32;;;;;;;9.30;5.23;;;;;;;4.44;58.03;100963.66;5111886;28;20644;-65
2022/04/03 04:16:02;;;;;;;12.93;5.83;;;;;;;4.41;58.10;100968.25;5111920;28;20648;-65
2022/04/03 04:18:31;;;;;;;12.20;5.93;;;;;;;4.37;58.23;100967.59;5110177;28;20199;-65
2022/04/03 04:20:58;;;;;;;11.10;6.00;;;;;;;4.38;58.09;100964.03;5111847;28;20719;-65
2022/04/03 04:23:26;;;;;;;9.93;6.00;;;;;;;4.36;58.04;100972.94;5111635;28;20204;-65
2022/04/03 04:25:54;;;;;;;12.30;6.07;;;;;;;4.33;58.28;100975.75;5113920;27;20204;-65
2022/04/03 04:28:21;;;;;;;12.30;4.97;;;;;;;4.30;58.23;100982.06;5110423;28;20647;-65
2022/04/03 04:30:52;;;;;;;11.70;5.97;;;;;;;4.27;58.13;100986.66;5110918;28;20213;-65
2022/04/03 04:33:32;;;;;;;11.77;5.63;;;;;;;4.22;58.32;100975.59;5111683;28;20192;-64
2022/04/03 04:36:00;;;;;;;10.80;5.53;;;;;;;4.20;58.53;100985.34;5111224;28;20236;-64
2022/04/03 04:38:28;;;;;;;13.23;6.30;;;;;;;4.21;58.48;100980.00;5110465;28;20687;-64
2022/04/03 04:40:56;;;;;;;9.77;5.37;;;;;;;4.12;58.74;100984.03;5111785;28;20212;-65
2022/04/03 04:43:23;;;;;;;11.70;6.47;;;;;;;4.11;59.02;100992.00;5111392;28;20252;-65
2022/04/03 04:45:51;;;;;;;11.60;5.67;;;;;;;4.10;58.84;100985.91;5111560;28;20215;-64
2022/04/03 04:48:22;;;;;;;12.27;5.90;;;;;;;4.07;59.02;100985.25;5099717;28;20238;-64
2022/04/03 04:50:51;;;;;;;10.07;5.47;;;;;;;4.00;59.08;100994.44;5091002;28;20197;-65
2022/04/03 04:53:22;;;;;;;10.33;5.20;;;;;;;3.98;59.22;100997.16;5091092;28;20204;-65
2022/04/03 04:55:49;;;;;;;11.83;5.90;;;;;;;4.00;59.15;101004.94;5090359;28;20243;-66
2022/04/03 04:58:17;;;;;;;9.17;4.67;;;;;;;4.00;59.32;101011.03;5097618;28;20659;-66
2022/04/03 05:00:45;;;;;;;10.93;5.07;;;;;;;3.98;59.13;101010.28;5110036;28;20255;-66
2022/04/03 05:03:13;;;;;;;9.83;5.10;;;;;;;4.00;59.13;101011.03;5110138;28;20211;-66
2022/04/03 05:05:41;;;;;;;10.90;5.00;;;;;;;3.96;59.12;101013.94;5105707;28;20227;-65
2022/04/03 05:08:10;;;;;;;8.93;4.93;;;;;;;3.92;58.98;101008.03;5094326;28;20378;-65
2022/04/03 05:10:38;;;;;;;9.43;5.03;;;;;;;3.91;59.21;101021.22;5111936;27;20288;-65
2022/04/03 05:13:09;;;;;;;11.37;5.40;;;;;;;3.83;59.29;101011.22;5110809;28;20300;-65
2022/04/03 05:15:36;;;;;;;9.60;5.20;;;;;;;3.79;59.29;101021.03;5111041;28;20486;-65
2022/04/03 05:18:05;;;;;;;9.37;4.93;;;;;;;3.74;59.49;101030.97;5110683;28;20289;-65
2022/04/03 05:20:33;;;;;;;12.87;5.40;;;;;;;3.81;59.15;101027.97;5110032;28;20302;-65
2022/04/03 05:23:00;;;;;;;9.87;4.80;;;;;;;3.79;59.16;101033.28;5110501;28;20211;-65
2022/04/03 05:25:29;;;;;;;11.63;5.47;;;;;;;3.77;59.31;101035.19;5110563;28;20666;-65
2022/04/03 05:27:57;;;;;;;9.27;4.73;;;;;;;3.82;59.13;101046.25;5105941;28;20223;-65
2022/04/03 05:30:25;;;;;;;9.03;4.50;;;;;;;3.79;59.22;101038.53;5093510;27;20210;-64
2022/04/03 05:32:53;;;;;;;10.60;4.93;;;;;;;3.85;58.87;101045.22;5110474;27;20212;-63
2022/04/03 05:35:20;;;;;;;10.03;5.23;;;;;;;3.85;58.81;101040.81;5110352;28;20293;-64
2022/04/03 05:37:48;;;;;;;10.47;5.13;;;;;;;3.84;58.72;101047.00;5109756;28;20336;-66
2022/04/03 05:40:19;;;;;;;8.57;4.80;;;;;;;3.84;58.59;101033.88;5108892;28;20213;-65
2022/04/03 05:42:48;;;;;;;12.73;4.57;;;;;;;3.81;58.62;101052.41;5109489;28;20597;-64
2022/04/03 05:45:16;;;;;;;10.03;5.20;;;;;;;3.79;58.41;101049.03;5107979;28;20202;-65
2022/04/03 05:47:44;;;;;;;8.77;4.87;;;;;;;3.88;57.92;101048.50;5109436;28;20233;-64
2022/04/03 05:50:14;;;;;;;11.37;4.90;;;;;;;3.92;57.64;101044.75;5108800;28;20300;-64
2022/04/03 05:52:45;;;;;;;12.87;4.93;;;;;;;3.97;57.87;101047.09;5108914;28;20210;-64
2022/04/03 05:55:13;;;;;;;8.40;4.90;;;;;;;3.95;58.29;101041.97;5108887;28;20304;-65
2022/04/03 05:57:40;;;;;;;8.70;4.27;;;;;;;3.94;57.94;101048.16;5109055;28;20344;-65
2022/04/03 06:00:12;;;;;;;10.33;4.53;;;;;;;3.96;57.41;101054.13;5111303;27;20616;-65
2022/04/03 06:02:47;;;;;;;9.37;4.27;;;;;;;3.94;56.92;101042.91;5109053;28;20195;-65
2022/04/03 06:05:15;;;;;;;9.00;4.57;;;;;;;3.97;57.26;101053.19;5108622;28;20219;-66
2022/04/03 06:07:42;;;;;;;11.93;4.67;;;;;;;3.84;57.41;101064.53;5089656;28;20740;-64
2022/04/03 06:10:10;;;;;;;9.07;4.53;;;;;;;3.99;57.10;101067.06;5108267;28;20294;-65
2022/04/03 06:12:38;;;;;;;6.97;4.00;;;;;;;4.01;56.63;101075.69;5108689;28;20207;-65
2022/04/03 06:15:06;;;;;;;10.07;4.27;;;;;;;4.05;56.90;101064.06;5109087;28;20213;-66
2022/04/03 06:17:35;;;;;;;9.33;4.47;;;;;;;4.07;56.33;101064.84;5108582;28;20216;-65
2022/04/03 06:20:04;;;;;;;7.40;4.00;;;;;;;4.14;56.10;101067.91;5108552;28;20633;-65
2022/04/03 06:22:31;;;;;;;7.67;4.27;;;;;;;4.11;55.14;101068.97;5108924;28;20436;-65
2022/04/03 06:24:59;;;;;;;7.43;4.07;;;;;;;4.15;54.67;101073.09;5113071;28;20317;-66
2022/04/03 06:27:27;;;;;;;5.97;3.43;;;;;;;4.15;54.33;101072.25;5109269;28;20213;-66
2022/04/03 06:29:54;;;;;;;7.90;3.20;;;;;;;4.17;54.03;101075.63;5108467;28;20213;-66
2022/04/03 06:32:22;;;;;;;8.07;3.13;;;;;;;4.09;53.57;101094.47;5111967;28;20207;-66
2022/04/03 06:34:51;;;;;;;7.70;3.67;;;;;;;4.09;53.58;101086.59;5110667;28;20258;-64
2022/04/03 06:37:19;;;;;;;5.17;2.80;;;;;;;4.20;53.06;101079.84;5110673;28;20326;-65
2022/04/03 06:39:46;;;;;;;6.73;3.23;;;;;;;4.33;52.90;101091.28;5103602;28;20209;-65
2022/04/03 06:42:14;;;;;;;5.83;2.87;;;;;;;4.35;52.73;101089.41;5108879;28;20686;-65
2022/04/03 06:44:42;;;;;;;10.17;3.27;;;;;;;4.30;52.61;101089.72;5110641;28;20218;-64
2022/04/03 06:47:11;;;;;;;5.63;3.40;;;;;;;4.34;52.60;101092.97;5109769;28;20200;-65
2022/04/03 06:49:40;;;;;;;6.60;3.37;;;;;;;4.28;51.35;101098.59;5108944;28;20290;-66
2022/04/03 06:52:09;;;;;;;7.17;3.90;;;;;;;4.30;51.85;101096.75;5110624;28;20262;-65
2022/04/03 06:54:37;;;;;;;6.77;3.57;;;;;;;4.46;52.32;101106.22;5112949;28;20204;-65
2022/04/03 06:57:06;;;;;;;7.70;3.73;;;;;;;4.45;51.41;101111.56;5112640;28;20219;-65
2022/04/03 06:59:34;;;;;;;6.90;3.27;;;;;;;4.30;51.60;101109.88;5112211;28;20405;-65
2022/04/03 07:02:02;;;;;;;9.37;4.03;;;;;;;4.48;51.63;101109.59;5113063;28;20703;-65
2022/04/03 07:04:30;;;;;;;8.00;3.93;;;;;;;4.54;50.86;101118.88;5112415;28;20582;-67
2022/04/03 07:06:57;;;;;;;8.73;4.50;;;;;;;4.24;51.78;101123.34;5111597;27;20560;-64
2022/04/03 07:09:27;;;;;;;8.30;3.63;;;;;;;4.49;51.01;101120.91;5111331;28;20312;-66
2022/04/03 07:11:54;;;;;;;8.23;3.70;;;;;;;4.63;50.73;101127.97;5112929;28;20562;-64
2022/04/03 07:14:22;;;;;;;6.60;3.60;;;;;;;4.71;50.65;101123.94;5112338;28;20214;-65
2022/04/03 07:16:50;;;;;;;6.53;3.47;;;;;;;4.75;50.85;101125.41;5112442;28;20315;-65
2022/04/03 07:19:18;;;;;;;7.20;3.47;;;;;;;4.81;49.90;101134.72;5111287;28;20202;-65
2022/04/03 07:21:50;;;;;;;6.03;3.40;;;;;;;4.80;50.61;101128.63;5112258;28;20221;-64
2022/04/03 07:24:18;;;;;;;6.40;3.33;;;;;;;4.83;49.95;101138.97;5112728;28;20617;-66
2022/04/03 07:26:47;;;;;;;6.10;2.87;;;;;;;4.73;49.57;101132.56;5112575;28;20205;-65
2022/04/03 07:29:15;;;;;;;7.27;3.07;;;;;;;4.82;49.06;101132.00;5112440;27;20236;-64
2022/04/03 07:31:43;;;;;;;5.33;2.40;;;;;;;5.09;48.55;101139.09;5112774;27;20223;-64
2022/04/03 07:34:11;;;;;;;7.00;2.60;;;;;;;4.89;46.92;101143.81;5112321;28;20303;-65
2022/04/03 07:36:38;;;;;;;7.53;2.57;;;;;;;5.07;47.54;101140.97;5105995;28;20237;-65
2022/04/03 07:39:09;;;;;;;8.00;2.67;;;;;;;5.12;46.95;101133.63;5090757;28;20699;-65
2022/04/03 07:41:36;;;;;;;5.23;2.50;;;;;;;4.90;46.74;101148.13;5092155;28;20305;-65
2022/04/03 07:44:07;;;;;;;5.33;2.77;;;;;;;5.30;47.52;101142.97;5091554;28;20213;-65
2022/04/03 07:46:41;;;;;;;4.17;1.97;;;;;;;5.48;47.71;101144.44;5095047;28;20244;-65
2022/04/03 07:49:10;;;;;;;4.30;2.17;;;;;;;5.60;47.17;101156.81;5112588;28;20248;-65
2022/04/03 07:51:46;;;;;;;4.77;2.70;;;;;;;5.74;46.13;101155.88;5112168;28;20662;-66
2022/04/03 07:54:14;;;;;;;4.67;2.27;;;;;;;5.32;45.80;101156.88;5112382;28;20209;-65
2022/04/03 07:56:42;;;;;;;5.67;2.20;;;;;;;5.39;46.50;101162.59;5112811;28;20325;-66
2022/04/03 07:59:25;;;;;;;5.90;2.27;;;;;;;5.48;46.57;101157.59;5112085;28;20202;-66
2022/04/03 08:01:53;;;;;;;4.60;2.40;;;;;;;5.41;46.58;101164.19;5111043;28;20220;-66
2022/04/03 08:04:21;;;;;;;4.63;2.20;;;;;;;5.55;47.31;101164.13;5110828;28;20580;-65
2022/04/03 08:06:49;;;;;;;6.37;2.53;;;;;;;5.63;46.67;101164.47;5112189;28;20209;-65
2022/04/03 08:09:17;;;;;;;3.77;2.13;;;;;;;5.82;46.28;101166.75;5113388;27;20252;-66
2022/04/03 08:11:45;;;;;;;6.03;2.13;;;;;;;5.94;45.02;101166.00;5112461;28;20563;-64
2022/04/03 08:14:13;;;;;;;7.07;2.33;;;;;;;5.89;44.65;101168.06;5111405;28;20214;-65
2022/04/03 08:16:42;;;;;;;8.03;2.30;;;;;;;6.09;45.06;101164.13;5111504;27;20293;-65
2022/04/03 08:19:10;;;;;;;6.70;2.53;;;;;;;6.14;45.16;101167.31;5111236;27;20570;-65
2022/04/03 08:21:37;;;;;;;5.13;2.60;;;;;;;6.10;46.21;101165.81;5111709;28;20284;-64
2022/04/03 08:24:06;;;;;;;5.60;2.93;;;;;;;6.26;46.53;101171.72;5111432;28;20293;-65
2022/04/03 08:26:34;;;;;;;8.57;3.07;;;;;;;5.95;46.41;101170.31;5111736;28;20293;-65
2022/04/03 08:29:02;;;;;;;7.87;3.00;;;;;;;6.22;46.19;101172.91;5111301;28;20727;-66
2022/04/03 08:31:29;;;;;;;5.10;2.40;;;;;;;6.58;46.12;101166.06;5110968;28;20198;-66
2022/04/03 08:33:59;;;;;;;5.13;2.63;;;;;;;6.78;46.92;101170.78;5104082;27;20542;-65
2022/04/03 08:36:26;;;;;;;5.50;3.00;;;;;;;6.90;45.78;101177.84;5090658;28;20220;-65
2022/04/03 08:38:56;;;;;;;8.07;3.03;;;;;;;7.33;44.73;101180.06;5089666;28;20264;-65
2022/04/03 08:41:23;;;;;;;5.50;3.00;;;;;;;7.21;43.52;101175.69;5091684;28;20262;-67
2022/04/03 08:43:51;;;;;;;7.17;3.00;;;;;;;7.49;43.50;101183.28;5091205;28;20213;-65
2022/04/03 08:46:19;;;;;;;5.20;3.00;;;;;;;7.62;43.05;101189.38;5111378;27;20292;-63
2022/04/03 08:48:47;;;;;;;6.57;3.30;;;;;;;7.74;42.76;101190.28;5111075;28;20302;-66
2022/04/03 08:51:26;;;;;;;4.03;2.33;;;;;;;7.16;42.88;101187.41;5111521;28;20658;-65
2022/04/03 08:53:54;;;;;;;5.43;2.47;;;;;;;7.59;42.86;101186.97;5111271;28;20220;-66
2022/04/03 08:56:22;;;;;;;6.77;3.53;;;;;;;7.12;42.35;101185.91;5111153;28;20676;-67
2022/04/03 08:58:50;;;;;;;5.70;2.87;;;;;;;7.49;42.07;101191.22;5110950;28;20205;-67
2022/04/03 09:01:18;;;;;;;12.10;2.80;;;;;;;8.18;42.43;101189.63;5110649;28;20840;-65
2022/04/03 09:03:47;;;;;;;5.30;3.00;;;;;;;8.39;42.83;101193.31;5111205;28;20205;-65
2022/04/03 09:06:17;;;;;;;6.33;2.90;;;;;;;9.02;40.09;101191.94;5103584;28;20207;-65
2022/04/03 09:08:46;;;;;;;8.57;3.50;;;;;;;11.24;36.69;101195.41;5110497;28;20202;-66
2022/04/03 09:11:14;;;;;;;5.83;2.53;;;;;;;14.75;30.99;101192.84;5111312;28;20328;-66
2022/04/03 09:13:43;;;;;;;9.63;4.00;;;;;;;19.00;25.34;101191.50;5111000;28;20294;-65
2022/04/03 09:16:11;;;;;;;6.13;3.43;;;;;;;22.08;22.01;101181.53;5110772;27;20577;-65
2022/04/03 09:18:46;;;;;;;7.00;3.03;;;;;;;23.65;19.44;101183.34;5110245;28;20271;-65
2022/04/03 09:21:21;;;;;;;5.67;2.63;;;;;;;24.73;18.89;101184.81;5109748;28;20288;-66
2022/04/03 09:24:07;;;;;;;3.70;2.20;;;;;;;26.19;17.29;101176.50;5110299;28;20202;-65
2022/04/03 09:26:39;;;;;;;3.50;2.10;;;;;;;26.71;17.16;101176.66;5110194;28;20213;-66
2022/04/03 09:29:08;;;;;;;5.73;2.07;;;;;;;26.93;16.17;101170.41;5107135;28;20240;-66
2022/04/03 09:31:37;;;;;;;7.70;1.90;;;;;;;26.18;16.54;101167.50;5109490;28;20285;-66
2022/04/03 09:34:06;;;;;;;5.43;1.63;;;;;;;27.38;15.42;101171.59;5110426;28;20662;-66
2022/04/03 09:36:37;;;;;;;4.93;1.87;;;;;;;28.13;14.63;101158.56;5109827;28;20236;-66
2022/04/03 09:39:07;;;;;;;3.63;2.00;;;;;;;29.26;14.18;101156.41;5109344;28;20431;-65
2022/04/03 09:41:53;;;;;;;5.53;1.83;;;;;;;29.59;14.11;101163.63;5110473;28;20206;-66
2022/04/03 09:44:28;;;;;;;3.40;2.10;;;;;;;17.68;22.11;101182.06;5110202;28;20247;-65
2022/04/03 09:47:16;;;;;;;3.53;2.00;;;;;;;13.86;27.39;101182.28;5114445;27;20200;-65
2022/04/03 09:49:46;;;;;;;4.27;2.27;;;;;;;12.62;29.02;101189.88;5102184;28;20231;-65
2022/04/03 09:52:37;;;;;;;4.03;2.30;;;;;;;15.17;25.06;101173.38;5109648;28;20193;-66
2022/04/03 09:55:18;;;;;;;3.70;1.90;;;;;;;10.93;29.14;101181.31;5109805;28;20297;-64
2022/04/03 09:57:47;;;;;;;3.30;2.00;;;;;;;10.49;32.91;101181.63;5109491;28;20494;-66
2022/04/03 10:00:37;;;;;;;4.40;2.30;;;;;;;9.89;32.72;101193.69;5109231;28;20196;-66
2022/04/03 10:03:05;;;;;;;4.20;2.17;;;;;;;9.36;35.13;101188.31;5109439;28;20212;-65
2022/04/03 10:05:34;;;;;;;4.27;2.10;;;;;;;9.31;32.83;101182.56;5109697;28;20311;-65
2022/04/03 10:08:05;;;;;;;3.93;1.97;;;;;;;9.26;33.61;101179.41;5109567;28;20291;-66
2022/04/03 10:10:35;;;;;;;4.30;2.17;;;;;;;10.03;32.37;101174.84;5109035;28;20594;-66
2022/04/03 10:13:04;;;;;;;3.00;1.67;;;;;;;20.12;20.79;101164.09;5110187;28;20206;-65
2022/04/03 10:15:32;;;;;;;4.30;1.50;;;;;;;23.31;17.46;101166.38;5120357;27;20686;-67
2022/04/03 10:18:01;;;;;;;2.67;1.40;;;;;;;24.88;16.18;101155.47;5115360;27;20198;-67
2022/04/03 10:20:30;;;;;;;4.47;1.43;;;;;;;28.07;13.74;101144.00;5108592;28;20198;-65
2022/04/03 10:23:01;;;;;;;3.08;1.52;;;;;;;28.71;12.74;101149.09;5108618;28;20251;-68
2022/04/03 10:25:36;;;;;;;3.00;1.33;;;;;;;25.71;12.85;101150.25;5105219;28;20217;-65
2022/04/03 10:28:06;;;;;;;2.53;1.30;;;;;;;21.29;17.72;101145.38;5096744;28;20215;-66
2022/04/03 10:30:38;;;;;;;2.42;1.00;;;;;;;17.39;18.39;101157.75;5112980;28;20240;-66
2022/04/03 10:33:08;;;;;;;4.50;1.00;;;;;;;18.51;20.40;101153.56;5117050;27;20237;-65
2022/04/03 10:35:47;;;;;;;2.90;1.10;;;;;;;21.62;17.61;101145.50;5113249;28;20229;-66
2022/04/03 10:38:14;;;;;;;2.95;1.65;;;;;;;22.26;15.76;101158.47;5113172;28;20332;-66
2022/04/03 10:40:58;;;;;;;2.15;1.10;;;;;;;21.42;17.76;101152.69;5113256;28;20667;-67
2022/04/03 10:43:28;;;;;;;1.88;1.25;;;;;;;18.56;17.54;101151.97;5116091;27;20293;-65
2022/04/03 10:45:57;;;;;;;2.33;1.30;;;;;;;19.53;16.21;101144.63;5113262;28;20673;-65
2022/04/03 10:48:27;;;;;;;2.97;1.52;;;;;;;18.82;19.26;101146.22;5112930;28;20213;-66
2022/04/03 10:51:04;;;;;;;4.38;1.90;;;;;;;20.21;18.04;101145.94;5112892;28;20265;-66
2022/04/03 10:53:34;;;;;;;2.13;1.40;;;;;;;19.52;19.39;101145.69;5113622;28;20213;-66
2022/04/03 10:56:07;;;;;;;2.78;1.38;;;;;;;20.93;17.47;101151.81;5113444;28;20202;-66
2022/04/03 10:58:41;;;;;;;3.88;1.33;;;;;;;19.01;19.29;101148.31;5111912;28;20570;-66
2022/04/03 11:01:12;;;;;;;3.92;1.23;;;;;;;20.46;16.81;101147.19;5113248;28;20202;-68
2022/04/03 11:03:40;;;;;;;4.43;1.00;;;;;;;23.36;13.12;101134.09;5116002;27;20206;-66
2022/04/03 11:06:37;;;;;;;1.88;1.20;;;;;;;22.56;14.89;101121.03;5113704;28;20190;-66
2022/04/03 11:09:11;;;;;;;2.72;1.40;;;;;;;18.45;19.12;101128.28;5094244;27;20293;-66
2022/04/03 11:11:57;;;;;;;3.08;1.25;;;;;;;21.59;14.74;101137.81;5116322;27;20206;-67
2022/04/03 11:14:56;;;;;;;3.30;1.23;;;;;;;23.43;13.98;101117.81;5113881;28;20297;-66
2022/04/03 11:17:51;;;;;;;1.58;1.00;;;;;;;19.73;15.94;101123.31;5111740;28;20600;-66
2022/04/03 11:20:33;;;;;;;1.55;1.13;;;;;;;22.57;13.88;101118.13;5111487;28;20206;-67
2022/04/03 11:23:14;;;;;;;2.08;1.10;;;;;;;23.24;13.42;101108.75;5100763;28;20269;-66
2022/04/03 11:25:43;;;;;;;2.13;1.20;;;;;;;22.95;14.67;101103.91;5092021;28;20203;-66
2022/04/03 11:28:13;;;;;;;1.75;1.13;;;;;;;22.63;13.90;101105.63;5097948;28;20205;-65
2022/04/03 11:30:42;;;;;;;3.10;1.40;;;;;;;24.75;15.93;101118.44;5111961;28;20214;-66
2022/04/03 11:33:12;;;;;;;2.60;1.60;;;;;;;22.41;14.67;101111.28;5113137;28;20271;-65
2022/04/03 11:35:42;;;;;;;2.83;1.45;;;;;;;21.00;15.05;101111.44;5112344;28;20220;-66
2022/04/03 11:38:11;;;;;;;2.22;1.52;;;;;;;19.46;15.93;101108.72;5111466;28;20714;-66
2022/04/03 11:40:40;;;;;;;1.60;1.13;;;;;;;19.37;18.91;101105.31;5112431;28;20220;-66
2022/04/03 11:43:10;;;;;;;2.03;1.42;;;;;;;19.08;17.52;101105.41;5112612;28;20765;-67